KBDU

Details ICAO KBDU (WBU)
Name BOULDER MUNI
Region United States
Timezone America/Denver (UTC-6.0)
Plans Departing 22
Arriving 32
Stats Elevation 5,288 ft / 1,612 m (AMSL)
Location 40.038749° -105.227366°
Runways 2
Magnetic Variation 8.322° E
Sunrise 2018-05-22 11:41:10 UTC / 2018-05-22 05:41:10 Local
Sunset 2018-05-23 02:16:53 UTC / 2018-05-22 20:16:53 Local
Advertisement - Login to hide

Runways

ID Width Length Bearing (true) Bearing (mag) Surface Threshold Offset Overrun Length
08L 25 ft / 8 m 4,121 ft / 1,256 m 92.83° 84.51° Dirt 200 ft / 61 m 0 ft / 0 m
08R 75 ft / 23 m 4,121 ft / 1,256 m 92.81° 84.49° Asphalt 200 ft / 61 m 0 ft / 0 m
26L 75 ft / 23 m 4,121 ft / 1,256 m 272.82° 264.50° Asphalt 200 ft / 61 m 0 ft / 0 m
26R 25 ft / 8 m 4,121 ft / 1,256 m 272.84° 264.52° Dirt 0 ft / 0 m 0 ft / 0 m

Map

Weather


0- 5 10 15 20 25 30 35+ Temperature / ° C

Clouds and Precipitation
Forecast for 2018-05-22 12:00 UTC. Updated 3 hours ago

Ground ~20,000 ft ~40,000 ft Winds

METAR

KBDU 221412Z AUTO 17003KT 10SM CLR 17/07 A2998 RMK AO2

TAF

Not found

Frequencies

Recorded 118.82 MHz AWOS 3
Unicom 122.70 MHz CTAF/UNICOM
Warning: Do not use this data for real-world aviation or navigation. No guarantee of current accuracy is given.